Austin, Utah
Current Conditions -  °F | °C
As of 5:52 PM on Tuesday 25 Nov 2014 (Local Time) from KMLF Reporting Station
Clear Clear  
Wind Chill: 34°   Ceiling: Unl
Heat Index: 38°   Visibility: 10mi
Dew Point: 18°   Wind: 5mph
Humidity: 44%   Direction: 230°SW
Pressure: 30.34"   Gusts: NA
Location:  38.6125°N, 112.081°W
Report Text: KMLF 260052Z AUTO 23004KT 10SM CLR 03/M08 A3034 RMK AO2 SLP293 T00331078 TSNO
Loading
Personal Weather Stations






























Interactive Weather Map New forecast layout! Learn more

10-Day Weather Forecast

Advertisements
Track Severe Weather on mobile